sensor_id;sensor_type;location;lat;lon;timestamp;P1;P2;P0
61542;PMS5003;47414;43.168;44.812;2022-12-29T00:02:57;5.00;5.00;4.50
61542;PMS5003;47414;43.168;44.812;2022-12-29T00:07:59;8.00;8.00;4.75
61542;PMS5003;47414;43.168;44.812;2022-12-29T00:13:00;12.50;11.75;6.50
61542;PMS5003;47414;43.168;44.812;2022-12-29T00:18:00;8.75;6.50;4.75
61542;PMS5003;47414;43.168;44.812;2022-12-29T00:23:02;10.50;9.50;6.00
61542;PMS5003;47414;43.168;44.812;2022-12-29T00:28:03;5.25;4.75;4.00
61542;PMS5003;47414;43.168;44.812;2022-12-29T00:33:08;11.00;10.50;6.00
61542;PMS5003;47414;43.168;44.812;2022-12-29T00:38:10;8.75;8.75;5.25
61542;PMS5003;47414;43.168;44.812;2022-12-29T00:43:12;10.00;9.50;6.25
61542;PMS5003;47414;43.168;44.812;2022-12-29T00:48:12;7.25;7.25;5.00
61542;PMS5003;47414;43.168;44.812;2022-12-29T00:53:14;8.00;6.25;4.00
61542;PMS5003;47414;43.168;44.812;2022-12-29T00:58:15;10.50;8.75;5.00
61542;PMS5003;47414;43.168;44.812;2022-12-29T01:03:15;8.00;8.00;5.00
61542;PMS5003;47414;43.168;44.812;2022-12-29T01:08:17;8.00;8.00;5.00
61542;PMS5003;47414;43.168;44.812;2022-12-29T01:13:17;11.50;9.00;4.00
61542;PMS5003;47414;43.168;44.812;2022-12-29T01:18:18;7.50;7.50;5.00
61542;PMS5003;47414;43.168;44.812;2022-12-29T01:23:20;7.25;6.00;2.00
61542;PMS5003;47414;43.168;44.812;2022-12-29T01:28:21;3.50;3.50;2.00
61542;PMS5003;47414;43.168;44.812;2022-12-29T01:33:22;7.25;7.00;4.00
61542;PMS5003;47414;43.168;44.812;2022-12-29T01:38:24;6.50;6.50;4.00
61542;PMS5003;47414;43.168;44.812;2022-12-29T01:43:37;9.25;8.50;4.00
61542;PMS5003;47414;43.168;44.812;2022-12-29T01:48:38;6.00;6.00;4.00
61542;PMS5003;47414;43.168;44.812;2022-12-29T01:53:40;7.25;7.25;5.00
61542;PMS5003;47414;43.168;44.812;2022-12-29T01:58:42;8.00;7.50;4.25
61542;PMS5003;47414;43.168;44.812;2022-12-29T02:03:45;4.50;4.50;4.00
61542;PMS5003;47414;43.168;44.812;2022-12-29T02:08:47;10.25;7.75;5.00
61542;PMS5003;47414;43.168;44.812;2022-12-29T02:13:49;8.50;7.75;5.00
61542;PMS5003;47414;43.168;44.812;2022-12-29T02:18:51;11.50;10.00;7.00
61542;PMS5003;47414;43.168;44.812;2022-12-29T02:24:11;9.50;9.00;5.00
61542;PMS5003;47414;43.168;44.812;2022-12-29T02:29:20;7.75;6.50;2.00
61542;PMS5003;47414;43.168;44.812;2022-12-29T02:34:34;8.00;7.75;4.00
61542;PMS5003;47414;43.168;44.812;2022-12-29T02:39:40;8.00;8.00;5.50
61542;PMS5003;47414;43.168;44.812;2022-12-29T02:44:44;7.75;7.00;2.00
61542;PMS5003;47414;43.168;44.812;2022-12-29T02:49:53;10.75;10.00;5.00
61542;PMS5003;47414;43.168;44.812;2022-12-29T02:54:58;11.50;9.00;5.00
61542;PMS5003;47414;43.168;44.812;2022-12-29T03:00:00;6.50;6.50;3.00
61542;PMS5003;47414;43.168;44.812;2022-12-29T03:05:14;5.00;5.00;3.50
61542;PMS5003;47414;43.168;44.812;2022-12-29T03:10:20;14.00;12.00;7.75
61542;PMS5003;47414;43.168;44.812;2022-12-29T03:15:23;4.25;3.50;1.00
61542;PMS5003;47414;43.168;44.812;2022-12-29T03:20:29;8.50;8.00;7.00
61542;PMS5003;47414;43.168;44.812;2022-12-29T03:25:32;10.75;10.75;7.00
61542;PMS5003;47414;43.168;44.812;2022-12-29T03:30:34;10.25;10.25;4.25
61542;PMS5003;47414;43.168;44.812;2022-12-29T03:35:37;10.00;10.00;5.00
61542;PMS5003;47414;43.168;44.812;2022-12-29T03:40:39;6.50;6.50;4.00
61542;PMS5003;47414;43.168;44.812;2022-12-29T03:45:41;10.00;9.00;4.00
61542;PMS5003;47414;43.168;44.812;2022-12-29T03:50:43;10.75;8.50;4.25
61542;PMS5003;47414;43.168;44.812;2022-12-29T03:55:43;13.00;11.00;5.50
61542;PMS5003;47414;43.168;44.812;2022-12-29T04:00:44;10.25;10.25;5.00
61542;PMS5003;47414;43.168;44.812;2022-12-29T04:05:46;7.25;7.25;4.25
61542;PMS5003;47414;43.168;44.812;2022-12-29T04:10:47;7.25;6.50;4.00
61542;PMS5003;47414;43.168;44.812;2022-12-29T04:15:48;7.50;7.00;4.75
61542;PMS5003;47414;43.168;44.812;2022-12-29T04:20:50;8.50;8.00;5.00
61542;PMS5003;47414;43.168;44.812;2022-12-29T04:25:50;3.50;3.50;1.50
61542;PMS5003;47414;43.168;44.812;2022-12-29T04:30:51;10.00;10.00;5.00
61542;PMS5003;47414;43.168;44.812;2022-12-29T04:35:53;13.25;12.25;7.00
61542;PMS5003;47414;43.168;44.812;2022-12-29T04:40:54;7.25;7.25;4.00
61542;PMS5003;47414;43.168;44.812;2022-12-29T04:45:54;7.00;7.00;4.00
61542;PMS5003;47414;43.168;44.812;2022-12-29T04:50:56;9.50;9.50;5.00
61542;PMS5003;47414;43.168;44.812;2022-12-29T04:55:57;8.75;7.50;4.50
61542;PMS5003;47414;43.168;44.812;2022-12-29T05:00:57;8.00;8.00;4.75
61542;PMS5003;47414;43.168;44.812;2022-12-29T05:05:59;8.00;7.50;5.00
61542;PMS5003;47414;43.168;44.812;2022-12-29T05:11:00;2.50;2.50;1.75
61542;PMS5003;47414;43.168;44.812;2022-12-29T05:16:00;11.00;10.50;7.00
61542;PMS5003;47414;43.168;44.812;2022-12-29T05:21:02;8.75;8.75;6.50
61542;PMS5003;47414;43.168;44.812;2022-12-29T05:26:03;7.00;7.00;4.75
61542;PMS5003;47414;43.168;44.812;2022-12-29T05:31:03;8.25;8.00;4.50
61542;PMS5003;47414;43.168;44.812;2022-12-29T05:36:06;8.00;7.25;4.25
61542;PMS5003;47414;43.168;44.812;2022-12-29T05:41:07;6.25;6.25;4.50
61542;PMS5003;47414;43.168;44.812;2022-12-29T05:46:07;8.25;8.00;5.25
61542;PMS5003;47414;43.168;44.812;2022-12-29T05:51:09;12.00;12.00;8.00
61542;PMS5003;47414;43.168;44.812;2022-12-29T05:56:10;12.50;11.50;7.25
61542;PMS5003;47414;43.168;44.812;2022-12-29T06:01:10;12.00;11.00;7.00
61542;PMS5003;47414;43.168;44.812;2022-12-29T06:06:12;4.00;4.00;4.00
61542;PMS5003;47414;43.168;44.812;2022-12-29T06:11:12;4.25;4.25;2.50
61542;PMS5003;47414;43.168;44.812;2022-12-29T06:16:13;13.00;9.50;7.00
61542;PMS5003;47414;43.168;44.812;2022-12-29T06:21:15;9.00;9.00;8.00
61542;PMS5003;47414;43.168;44.812;2022-12-29T06:26:15;8.75;8.25;6.00
61542;PMS5003;47414;43.168;44.812;2022-12-29T06:31:16;9.00;8.50;5.25
61542;PMS5003;47414;43.168;44.812;2022-12-29T06:36:18;8.25;7.50;5.75
61542;PMS5003;47414;43.168;44.812;2022-12-29T06:41:18;8.50;8.50;6.00
61542;PMS5003;47414;43.168;44.812;2022-12-29T06:46:19;7.00;6.00;4.00
61542;PMS5003;47414;43.168;44.812;2022-12-29T06:51:21;11.00;11.00;6.50
61542;PMS5003;47414;43.168;44.812;2022-12-29T06:56:21;6.00;6.00;4.00
61542;PMS5003;47414;43.168;44.812;2022-12-29T07:01:22;5.00;4.25;4.00
61542;PMS5003;47414;43.168;44.812;2022-12-29T07:06:24;6.00;5.00;2.00
61542;PMS5003;47414;43.168;44.812;2022-12-29T07:11:24;7.00;6.00;4.00
61542;PMS5003;47414;43.168;44.812;2022-12-29T07:16:25;6.75;6.75;4.50
61542;PMS5003;47414;43.168;44.812;2022-12-29T07:21:27;5.00;5.00;4.00
61542;PMS5003;47414;43.168;44.812;2022-12-29T07:26:27;9.50;9.00;6.25
61542;PMS5003;47414;43.168;44.812;2022-12-29T07:31:28;5.00;5.00;3.25
61542;PMS5003;47414;43.168;44.812;2022-12-29T07:36:30;6.25;6.25;3.00
61542;PMS5003;47414;43.168;44.812;2022-12-29T07:41:30;9.50;9.25;6.00
61542;PMS5003;47414;43.168;44.812;2022-12-29T07:46:31;9.00;9.00;5.75
61542;PMS5003;47414;43.168;44.812;2022-12-29T07:51:33;3.00;3.00;2.00
61542;PMS5003;47414;43.168;44.812;2022-12-29T07:56:33;8.00;7.00;5.75
61542;PMS5003;47414;43.168;44.812;2022-12-29T08:01:33;7.50;7.50;6.00
61542;PMS5003;47414;43.168;44.812;2022-12-29T08:06:35;7.00;6.25;4.00
61542;PMS5003;47414;43.168;44.812;2022-12-29T08:11:36;9.50;8.50;6.50
61542;PMS5003;47414;43.168;44.812;2022-12-29T08:16:37;7.50;7.50;6.00
61542;PMS5003;47414;43.168;44.812;2022-12-29T08:21:39;9.00;9.00;7.00
61542;PMS5003;47414;43.168;44.812;2022-12-29T08:26:39;7.50;7.50;6.00
61542;PMS5003;47414;43.168;44.812;2022-12-29T08:31:40;6.75;4.50;3.00
61542;PMS5003;47414;43.168;44.812;2022-12-29T08:36:42;7.00;7.00;5.00
61542;PMS5003;47414;43.168;44.812;2022-12-29T08:41:42;13.75;12.25;7.25
61542;PMS5003;47414;43.168;44.812;2022-12-29T08:46:43;12.50;10.50;6.00
61542;PMS5003;47414;43.168;44.812;2022-12-29T08:51:45;11.00;9.25;6.25
61542;PMS5003;47414;43.168;44.812;2022-12-29T08:56:45;7.75;7.25;4.00
61542;PMS5003;47414;43.168;44.812;2022-12-29T09:01:46;13.00;12.00;6.00
61542;PMS5003;47414;43.168;44.812;2022-12-29T09:06:48;12.75;12.50;8.50
61542;PMS5003;47414;43.168;44.812;2022-12-29T09:11:48;6.75;5.50;3.25
61542;PMS5003;47414;43.168;44.812;2022-12-29T09:16:50;17.50;15.00;12.00
61542;PMS5003;47414;43.168;44.812;2022-12-29T09:21:52;12.00;12.00;9.00
61542;PMS5003;47414;43.168;44.812;2022-12-29T09:26:53;15.50;15.50;9.25
61542;PMS5003;47414;43.168;44.812;2022-12-29T09:31:53;14.75;14.50;10.00
61542;PMS5003;47414;43.168;44.812;2022-12-29T09:36:55;15.25;14.75;9.00
61542;PMS5003;47414;43.168;44.812;2022-12-29T09:41:59;15.00;14.25;10.00
61542;PMS5003;47414;43.168;44.812;2022-12-29T09:47:01;7.00;5.00;3.00
61542;PMS5003;47414;43.168;44.812;2022-12-29T09:52:04;11.00;10.00;6.50
61542;PMS5003;47414;43.168;44.812;2022-12-29T09:57:07;11.50;9.75;7.00
61542;PMS5003;47414;43.168;44.812;2022-12-29T10:02:14;9.25;8.50;5.50
61542;PMS5003;47414;43.168;44.812;2022-12-29T10:07:20;8.25;8.00;4.50
61542;PMS5003;47414;43.168;44.812;2022-12-29T10:12:25;9.25;8.75;5.50
61542;PMS5003;47414;43.168;44.812;2022-12-29T10:17:31;2.50;2.50;1.25
61542;PMS5003;47414;43.168;44.812;2022-12-29T10:22:38;5.00;5.00;3.00
61542;PMS5003;47414;43.168;44.812;2022-12-29T10:27:46;4.00;4.00;3.00
61542;PMS5003;47414;43.168;44.812;2022-12-29T10:32:49;4.25;4.00;2.00
61542;PMS5003;47414;43.168;44.812;2022-12-29T10:37:55;3.00;3.00;2.25
61542;PMS5003;47414;43.168;44.812;2022-12-29T10:42:57;4.75;4.25;3.00
61542;PMS5003;47414;43.168;44.812;2022-12-29T10:47:59;4.50;3.50;2.25
61542;PMS5003;47414;43.168;44.812;2022-12-29T10:53:02;3.75;3.75;2.75
61542;PMS5003;47414;43.168;44.812;2022-12-29T10:58:05;4.00;3.25;2.25
61542;PMS5003;47414;43.168;44.812;2022-12-29T11:03:10;6.50;4.75;2.75
61542;PMS5003;47414;43.168;44.812;2022-12-29T11:08:17;3.00;2.75;2.00
61542;PMS5003;47414;43.168;44.812;2022-12-29T11:13:24;3.50;3.00;1.00
61542;PMS5003;47414;43.168;44.812;2022-12-29T11:18:25;3.25;3.25;2.75
61542;PMS5003;47414;43.168;44.812;2022-12-29T11:23:31;6.25;4.00;2.50
61542;PMS5003;47414;43.168;44.812;2022-12-29T11:28:32;2.00;2.00;2.00
61542;PMS5003;47414;43.168;44.812;2022-12-29T11:33:34;3.25;3.25;2.00
61542;PMS5003;47414;43.168;44.812;2022-12-29T11:38:37;5.00;4.00;2.75
61542;PMS5003;47414;43.168;44.812;2022-12-29T11:43:38;8.00;8.00;5.00
61542;PMS5003;47414;43.168;44.812;2022-12-29T11:48:41;8.00;8.00;5.00
61542;PMS5003;47414;43.168;44.812;2022-12-29T11:53:43;4.50;4.50;3.00
61542;PMS5003;47414;43.168;44.812;2022-12-29T11:58:45;5.00;5.00;4.00
61542;PMS5003;47414;43.168;44.812;2022-12-29T12:03:47;3.25;3.25;2.00
61542;PMS5003;47414;43.168;44.812;2022-12-29T12:08:55;5.00;4.50;3.50
61542;PMS5003;47414;43.168;44.812;2022-12-29T12:13:57;4.25;4.25;3.00
61542;PMS5003;47414;43.168;44.812;2022-12-29T12:19:00;7.00;6.50;4.75
61542;PMS5003;47414;43.168;44.812;2022-12-29T12:24:23;4.00;3.50;3.00
61542;PMS5003;47414;43.168;44.812;2022-12-29T12:29:34;4.25;4.25;3.25
61542;PMS5003;47414;43.168;44.812;2022-12-29T12:34:37;7.75;7.25;3.50
61542;PMS5003;47414;43.168;44.812;2022-12-29T12:39:43;5.00;5.00;3.00
61542;PMS5003;47414;43.168;44.812;2022-12-29T12:44:48;7.50;5.25;3.00
61542;PMS5003;47414;43.168;44.812;2022-12-29T12:50:04;12.00;12.00;7.50
61542;PMS5003;47414;43.168;44.812;2022-12-29T12:55:16;7.00;6.00;3.25
61542;PMS5003;47414;43.168;44.812;2022-12-29T13:00:18;6.00;6.00;3.00
61542;PMS5003;47414;43.168;44.812;2022-12-29T13:05:31;8.00;6.00;4.00
61542;PMS5003;47414;43.168;44.812;2022-12-29T13:10:38;1.25;1.25;1.25
61542;PMS5003;47414;43.168;44.812;2022-12-29T13:15:42;12.50;12.50;8.25
61542;PMS5003;47414;43.168;44.812;2022-12-29T13:20:46;9.00;9.00;6.25
61542;PMS5003;47414;43.168;44.812;2022-12-29T13:25:50;10.50;10.00;5.00
61542;PMS5003;47414;43.168;44.812;2022-12-29T13:30:53;10.00;10.00;6.00
61542;PMS5003;47414;43.168;44.812;2022-12-29T13:35:59;17.50;17.50;12.00
61542;PMS5003;47414;43.168;44.812;2022-12-29T13:41:03;19.50;19.50;13.00
61542;PMS5003;47414;43.168;44.812;2022-12-29T13:46:06;7.50;7.00;5.00
61542;PMS5003;47414;43.168;44.812;2022-12-29T13:51:08;9.00;9.00;5.75
61542;PMS5003;47414;43.168;44.812;2022-12-29T13:56:12;10.50;10.00;6.00
61542;PMS5003;47414;43.168;44.812;2022-12-29T14:01:15;9.00;9.00;5.00
61542;PMS5003;47414;43.168;44.812;2022-12-29T14:06:22;10.75;8.75;5.00
61542;PMS5003;47414;43.168;44.812;2022-12-29T14:11:28;8.00;6.00;5.00
61542;PMS5003;47414;43.168;44.812;2022-12-29T14:16:33;8.25;8.25;6.00
61542;PMS5003;47414;43.168;44.812;2022-12-29T14:21:35;10.00;9.50;6.00
61542;PMS5003;47414;43.168;44.812;2022-12-29T14:26:37;10.00;9.00;5.75
61542;PMS5003;47414;43.168;44.812;2022-12-29T14:31:37;8.00;8.00;5.00
61542;PMS5003;47414;43.168;44.812;2022-12-29T14:36:38;9.00;8.75;6.00
61542;PMS5003;47414;43.168;44.812;2022-12-29T14:41:41;12.75;11.00;6.25
61542;PMS5003;47414;43.168;44.812;2022-12-29T14:46:42;10.50;10.50;6.00
61542;PMS5003;47414;43.168;44.812;2022-12-29T14:51:43;4.50;4.25;2.00
61542;PMS5003;47414;43.168;44.812;2022-12-29T14:56:46;9.00;9.00;5.75
61542;PMS5003;47414;43.168;44.812;2022-12-29T15:01:47;9.50;9.25;5.50
61542;PMS5003;47414;43.168;44.812;2022-12-29T15:06:49;10.50;9.00;6.50
61542;PMS5003;47414;43.168;44.812;2022-12-29T15:11:52;10.50;10.50;8.00
61542;PMS5003;47414;43.168;44.812;2022-12-29T15:16:53;8.00;6.25;2.50
61542;PMS5003;47414;43.168;44.812;2022-12-29T15:21:56;11.00;10.00;6.25
61542;PMS5003;47414;43.168;44.812;2022-12-29T15:26:58;10.00;10.00;6.25
61542;PMS5003;47414;43.168;44.812;2022-12-29T15:32:17;10.50;8.50;5.00
61542;PMS5003;47414;43.168;44.812;2022-12-29T15:37:19;9.25;9.25;6.00
61542;PMS5003;47414;43.168;44.812;2022-12-29T15:42:26;14.25;12.00;7.50
61542;PMS5003;47414;43.168;44.812;2022-12-29T15:47:30;8.75;8.75;7.00
61542;PMS5003;47414;43.168;44.812;2022-12-29T15:52:32;37.67;37.00;25.00
61542;PMS5003;47414;43.168;44.812;2022-12-29T15:57:41;32.50;29.75;19.00
61542;PMS5003;47414;43.168;44.812;2022-12-29T16:02:48;31.25;26.00;17.00
61542;PMS5003;47414;43.168;44.812;2022-12-29T16:07:53;25.00;24.25;16.50
61542;PMS5003;47414;43.168;44.812;2022-12-29T16:12:56;20.00;17.75;13.50
61542;PMS5003;47414;43.168;44.812;2022-12-29T16:18:01;26.00;24.75;15.25
61542;PMS5003;47414;43.168;44.812;2022-12-29T16:23:02;29.00;26.75;16.75
61542;PMS5003;47414;43.168;44.812;2022-12-29T16:28:12;0.25;0.00;0.00
61542;PMS5003;47414;43.168;44.812;2022-12-29T16:33:29;24.25;21.25;13.00
61542;PMS5003;47414;43.168;44.812;2022-12-29T16:38:33;26.00;24.25;17.00
61542;PMS5003;47414;43.168;44.812;2022-12-29T16:43:38;21.50;20.75;14.00
61542;PMS5003;47414;43.168;44.812;2022-12-29T16:48:45;24.00;22.00;15.50
61542;PMS5003;47414;43.168;44.812;2022-12-29T16:53:48;22.25;21.25;14.00
61542;PMS5003;47414;43.168;44.812;2022-12-29T16:58:52;20.50;18.00;12.50
61542;PMS5003;47414;43.168;44.812;2022-12-29T17:03:57;24.00;21.25;15.00
61542;PMS5003;47414;43.168;44.812;2022-12-29T17:08:58;18.00;17.00;12.25
61542;PMS5003;47414;43.168;44.812;2022-12-29T17:14:00;23.00;21.50;15.25
61542;PMS5003;47414;43.168;44.812;2022-12-29T17:19:01;25.75;23.75;17.75
61542;PMS5003;47414;43.168;44.812;2022-12-29T17:24:02;17.00;16.00;14.25
61542;PMS5003;47414;43.168;44.812;2022-12-29T17:29:06;20.50;18.25;13.00
61542;PMS5003;47414;43.168;44.812;2022-12-29T17:34:06;17.00;17.00;11.00
61542;PMS5003;47414;43.168;44.812;2022-12-29T17:39:08;14.25;13.75;8.00
61542;PMS5003;47414;43.168;44.812;2022-12-29T17:44:10;19.50;17.50;11.00
61542;PMS5003;47414;43.168;44.812;2022-12-29T17:49:14;14.00;13.00;8.00
61542;PMS5003;47414;43.168;44.812;2022-12-29T17:54:19;7.00;4.00;0.00
61542;PMS5003;47414;43.168;44.812;2022-12-29T17:59:22;12.50;10.50;7.25
61542;PMS5003;47414;43.168;44.812;2022-12-29T18:04:22;19.75;18.50;11.00
61542;PMS5003;47414;43.168;44.812;2022-12-29T18:09:22;13.00;13.00;11.50
61542;PMS5003;47414;43.168;44.812;2022-12-29T18:14:24;19.50;19.25;13.00
61542;PMS5003;47414;43.168;44.812;2022-12-29T18:19:25;29.25;26.50;17.25
61542;PMS5003;47414;43.168;44.812;2022-12-29T18:24:25;21.00;20.75;16.25
61542;PMS5003;47414;43.168;44.812;2022-12-29T18:29:27;14.25;14.25;9.00
61542;PMS5003;47414;43.168;44.812;2022-12-29T18:34:28;17.00;17.00;10.50
61542;PMS5003;47414;43.168;44.812;2022-12-29T18:39:28;12.50;12.50;7.00
61542;PMS5003;47414;43.168;44.812;2022-12-29T18:44:31;11.00;10.50;7.25
61542;PMS5003;47414;43.168;44.812;2022-12-29T18:49:31;6.50;6.50;4.75
61542;PMS5003;47414;43.168;44.812;2022-12-29T18:54:32;7.75;7.25;4.75
61542;PMS5003;47414;43.168;44.812;2022-12-29T18:59:34;8.00;7.00;4.50
61542;PMS5003;47414;43.168;44.812;2022-12-29T19:04:35;8.50;8.50;5.00
61542;PMS5003;47414;43.168;44.812;2022-12-29T19:09:35;7.25;7.00;5.00
61542;PMS5003;47414;43.168;44.812;2022-12-29T19:14:37;3.00;3.00;1.00
61542;PMS5003;47414;43.168;44.812;2022-12-29T19:19:38;11.00;10.75;7.75
61542;PMS5003;47414;43.168;44.812;2022-12-29T19:24:39;7.75;7.50;5.00
61542;PMS5003;47414;43.168;44.812;2022-12-29T19:29:41;10.00;7.75;5.00
61542;PMS5003;47414;43.168;44.812;2022-12-29T19:34:41;18.25;16.75;10.75
61542;PMS5003;47414;43.168;44.812;2022-12-29T19:39:42;10.25;8.75;4.50
61542;PMS5003;47414;43.168;44.812;2022-12-29T19:44:44;8.75;8.25;3.50
61542;PMS5003;47414;43.168;44.812;2022-12-29T19:49:44;25.67;24.00;14.67
61542;PMS5003;47414;43.168;44.812;2022-12-29T19:54:45;7.00;7.00;5.00
61542;PMS5003;47414;43.168;44.812;2022-12-29T19:59:47;7.00;7.00;5.50
61542;PMS5003;47414;43.168;44.812;2022-12-29T20:04:47;8.00;8.00;6.00
61542;PMS5003;47414;43.168;44.812;2022-12-29T20:09:48;9.00;9.00;7.00
61542;PMS5003;47414;43.168;44.812;2022-12-29T20:14:50;12.25;12.00;7.00
61542;PMS5003;47414;43.168;44.812;2022-12-29T20:19:51;9.00;9.00;6.00
61542;PMS5003;47414;43.168;44.812;2022-12-29T20:24:51;14.75;14.00;10.00
61542;PMS5003;47414;43.168;44.812;2022-12-29T20:29:53;6.50;6.50;4.00
61542;PMS5003;47414;43.168;44.812;2022-12-29T20:34:54;13.50;12.50;7.50
61542;PMS5003;47414;43.168;44.812;2022-12-29T20:39:54;9.00;6.75;5.50
61542;PMS5003;47414;43.168;44.812;2022-12-29T20:44:56;12.50;9.75;6.50
61542;PMS5003;47414;43.168;44.812;2022-12-29T20:49:57;9.25;8.50;5.00
61542;PMS5003;47414;43.168;44.812;2022-12-29T20:54:57;7.00;6.25;6.00
61542;PMS5003;47414;43.168;44.812;2022-12-29T21:00:00;12.00;10.00;6.50
61542;PMS5003;47414;43.168;44.812;2022-12-29T21:05:00;6.00;6.00;4.00
61542;PMS5003;47414;43.168;44.812;2022-12-29T21:10:01;6.75;6.75;6.00
61542;PMS5003;47414;43.168;44.812;2022-12-29T21:15:03;12.75;12.75;8.00
61542;PMS5003;47414;43.168;44.812;2022-12-29T21:20:03;11.00;9.75;7.00
61542;PMS5003;47414;43.168;44.812;2022-12-29T21:25:04;9.25;8.75;6.00
61542;PMS5003;47414;43.168;44.812;2022-12-29T21:30:07;10.00;9.00;6.00
61542;PMS5003;47414;43.168;44.812;2022-12-29T21:35:08;11.00;9.25;6.00
61542;PMS5003;47414;43.168;44.812;2022-12-29T21:40:09;8.50;7.00;4.00
61542;PMS5003;47414;43.168;44.812;2022-12-29T21:45:11;10.50;10.50;6.50
61542;PMS5003;47414;43.168;44.812;2022-12-29T21:50:12;9.75;9.00;4.50
61542;PMS5003;47414;43.168;44.812;2022-12-29T21:55:12;9.00;9.00;6.50
61542;PMS5003;47414;43.168;44.812;2022-12-29T22:00:15;6.75;6.00;4.00
61542;PMS5003;47414;43.168;44.812;2022-12-29T22:05:16;11.25;11.25;8.25
61542;PMS5003;47414;43.168;44.812;2022-12-29T22:10:16;15.25;12.75;8.50
61542;PMS5003;47414;43.168;44.812;2022-12-29T22:15:18;7.50;6.50;5.50
61542;PMS5003;47414;43.168;44.812;2022-12-29T22:20:20;4.50;3.00;3.00
61542;PMS5003;47414;43.168;44.812;2022-12-29T22:25:21;6.50;6.50;4.00
61542;PMS5003;47414;43.168;44.812;2022-12-29T22:30:23;7.00;7.00;4.00
61542;PMS5003;47414;43.168;44.812;2022-12-29T22:35:24;8.50;8.50;4.00
61542;PMS5003;47414;43.168;44.812;2022-12-29T22:40:25;8.00;7.50;6.00
61542;PMS5003;47414;43.168;44.812;2022-12-29T22:45:27;13.00;13.00;7.75
61542;PMS5003;47414;43.168;44.812;2022-12-29T22:50:27;9.25;8.00;6.00
61542;PMS5003;47414;43.168;44.812;2022-12-29T22:55:28;9.75;9.25;6.00
61542;PMS5003;47414;43.168;44.812;2022-12-29T23:00:29;6.75;6.00;3.00
61542;PMS5003;47414;43.168;44.812;2022-12-29T23:05:30;12.75;12.50;7.00
61542;PMS5003;47414;43.168;44.812;2022-12-29T23:10:30;9.75;9.75;7.00
61542;PMS5003;47414;43.168;44.812;2022-12-29T23:15:32;10.00;10.00;7.00
61542;PMS5003;47414;43.168;44.812;2022-12-29T23:20:33;12.25;12.00;7.00
61542;PMS5003;47414;43.168;44.812;2022-12-29T23:25:34;6.00;4.00;4.00
61542;PMS5003;47414;43.168;44.812;2022-12-29T23:30:36;8.00;6.50;6.00
61542;PMS5003;47414;43.168;44.812;2022-12-29T23:35:36;11.50;10.50;6.25
61542;PMS5003;47414;43.168;44.812;2022-12-29T23:40:37;8.00;7.75;5.00
61542;PMS5003;47414;43.168;44.812;2022-12-29T23:45:39;12.25;11.75;7.50
61542;PMS5003;47414;43.168;44.812;2022-12-29T23:50:39;11.00;9.25;6.00
61542;PMS5003;47414;43.168;44.812;2022-12-29T23:55:40;10.50;9.75;6.75
